sensor_id;sensor_type;location;lat;lon;timestamp;temperature;humidity
13186;DHT22;6658;53.080;7.428;2022-12-22T00:01:37;9.70;99.90
13186;DHT22;6658;53.080;7.428;2022-12-22T00:04:22;9.70;99.90
13186;DHT22;6658;53.080;7.428;2022-12-22T00:07:06;9.70;99.90
13186;DHT22;6658;53.080;7.428;2022-12-22T00:09:50;9.70;99.90
13186;DHT22;6658;53.080;7.428;2022-12-22T00:12:34;9.70;99.90
13186;DHT22;6658;53.080;7.428;2022-12-22T00:15:19;9.70;99.90
13186;DHT22;6658;53.080;7.428;2022-12-22T00:18:03;9.70;99.90
13186;DHT22;6658;53.080;7.428;2022-12-22T00:20:48;9.70;99.90
13186;DHT22;6658;53.080;7.428;2022-12-22T00:23:33;9.80;99.90
13186;DHT22;6658;53.080;7.428;2022-12-22T00:26:17;9.70;99.90
13186;DHT22;6658;53.080;7.428;2022-12-22T00:29:03;9.70;99.90
13186;DHT22;6658;53.080;7.428;2022-12-22T00:31:48;9.70;99.90
13186;DHT22;6658;53.080;7.428;2022-12-22T00:34:39;9.70;99.90
13186;DHT22;6658;53.080;7.428;2022-12-22T00:37:29;9.80;99.90
13186;DHT22;6658;53.080;7.428;2022-12-22T00:40:17;9.70;99.90
13186;DHT22;6658;53.080;7.428;2022-12-22T00:43:02;9.80;99.90
13186;DHT22;6658;53.080;7.428;2022-12-22T00:45:46;9.80;99.90
13186;DHT22;6658;53.080;7.428;2022-12-22T00:48:30;9.80;99.90
13186;DHT22;6658;53.080;7.428;2022-12-22T00:51:15;9.80;99.90
13186;DHT22;6658;53.080;7.428;2022-12-22T00:54:00;9.80;99.90
13186;DHT22;6658;53.080;7.428;2022-12-22T00:56:45;9.80;99.90
13186;DHT22;6658;53.080;7.428;2022-12-22T00:59:30;9.80;99.90
13186;DHT22;6658;53.080;7.428;2022-12-22T01:02:16;9.80;99.90
13186;DHT22;6658;53.080;7.428;2022-12-22T01:05:00;9.80;99.90
13186;DHT22;6658;53.080;7.428;2022-12-22T01:07:44;9.80;99.90
13186;DHT22;6658;53.080;7.428;2022-12-22T01:10:28;9.80;99.90
13186;DHT22;6658;53.080;7.428;2022-12-22T01:13:13;9.80;99.90
13186;DHT22;6658;53.080;7.428;2022-12-22T01:15:58;9.80;99.90
13186;DHT22;6658;53.080;7.428;2022-12-22T01:18:43;9.80;99.90
13186;DHT22;6658;53.080;7.428;2022-12-22T01:21:27;9.80;99.90
13186;DHT22;6658;53.080;7.428;2022-12-22T01:24:13;9.80;99.90
13186;DHT22;6658;53.080;7.428;2022-12-22T01:26:58;9.80;99.90
13186;DHT22;6658;53.080;7.428;2022-12-22T01:29:42;9.90;99.90
13186;DHT22;6658;53.080;7.428;2022-12-22T01:32:27;9.90;99.90
13186;DHT22;6658;53.080;7.428;2022-12-22T01:35:21;9.70;99.90
13186;DHT22;6658;53.080;7.428;2022-12-22T01:38:05;9.90;99.90
13186;DHT22;6658;53.080;7.428;2022-12-22T01:40:50;9.90;99.90
13186;DHT22;6658;53.080;7.428;2022-12-22T01:43:35;9.90;99.90
13186;DHT22;6658;53.080;7.428;2022-12-22T01:46:29;9.90;99.90
13186;DHT22;6658;53.080;7.428;2022-12-22T01:49:15;9.90;99.90
13186;DHT22;6658;53.080;7.428;2022-12-22T01:52:00;9.90;99.90
13186;DHT22;6658;53.080;7.428;2022-12-22T01:54:46;9.90;99.90
13186;DHT22;6658;53.080;7.428;2022-12-22T01:57:32;9.90;99.90
13186;DHT22;6658;53.080;7.428;2022-12-22T02:00:16;9.90;99.90
13186;DHT22;6658;53.080;7.428;2022-12-22T02:03:17;9.90;99.90
13186;DHT22;6658;53.080;7.428;2022-12-22T02:06:12;9.90;99.90
13186;DHT22;6658;53.080;7.428;2022-12-22T02:15:33;9.90;99.90
13186;DHT22;6658;53.080;7.428;2022-12-22T02:18:37;10.00;99.90
13186;DHT22;6658;53.080;7.428;2022-12-22T02:21:24;9.90;99.90
13186;DHT22;6658;53.080;7.428;2022-12-22T02:24:36;10.00;99.90
13186;DHT22;6658;53.080;7.428;2022-12-22T02:27:23;10.00;99.90
13186;DHT22;6658;53.080;7.428;2022-12-22T02:30:09;10.00;99.90
13186;DHT22;6658;53.080;7.428;2022-12-22T02:32:54;10.00;99.90
13186;DHT22;6658;53.080;7.428;2022-12-22T02:35:48;10.00;99.90
13186;DHT22;6658;53.080;7.428;2022-12-22T02:51:03;9.90;99.90
13186;DHT22;6658;53.080;7.428;2022-12-22T02:53:49;9.90;99.90
13186;DHT22;6658;53.080;7.428;2022-12-22T02:56:34;9.90;99.90
13186;DHT22;6658;53.080;7.428;2022-12-22T02:59:18;9.90;99.90
13186;DHT22;6658;53.080;7.428;2022-12-22T03:02:02;9.90;99.90
13186;DHT22;6658;53.080;7.428;2022-12-22T03:04:46;9.90;99.90
13186;DHT22;6658;53.080;7.428;2022-12-22T03:07:30;9.90;99.90
13186;DHT22;6658;53.080;7.428;2022-12-22T03:10:14;9.90;99.90
13186;DHT22;6658;53.080;7.428;2022-12-22T03:12:59;9.90;99.90
13186;DHT22;6658;53.080;7.428;2022-12-22T03:15:43;10.00;99.90
13186;DHT22;6658;53.080;7.428;2022-12-22T03:18:27;9.90;99.90
13186;DHT22;6658;53.080;7.428;2022-12-22T03:21:11;9.90;99.90
13186;DHT22;6658;53.080;7.428;2022-12-22T03:23:56;9.90;99.90
13186;DHT22;6658;53.080;7.428;2022-12-22T03:26:40;9.90;99.90
13186;DHT22;6658;53.080;7.428;2022-12-22T03:29:05;10.00;99.90
13186;DHT22;6658;53.080;7.428;2022-12-22T03:31:31;9.90;99.90
13186;DHT22;6658;53.080;7.428;2022-12-22T03:33:57;9.90;99.90
13186;DHT22;6658;53.080;7.428;2022-12-22T03:36:23;9.90;99.90
13186;DHT22;6658;53.080;7.428;2022-12-22T03:38:48;9.90;99.90
13186;DHT22;6658;53.080;7.428;2022-12-22T03:41:14;9.90;99.90
13186;DHT22;6658;53.080;7.428;2022-12-22T03:43:59;9.90;99.90
13186;DHT22;6658;53.080;7.428;2022-12-22T03:46:43;9.90;99.90
13186;DHT22;6658;53.080;7.428;2022-12-22T03:49:09;9.90;99.90
13186;DHT22;6658;53.080;7.428;2022-12-22T03:51:39;9.90;99.90
13186;DHT22;6658;53.080;7.428;2022-12-22T03:54:06;9.90;99.90
13186;DHT22;6658;53.080;7.428;2022-12-22T03:56:32;9.90;99.90
13186;DHT22;6658;53.080;7.428;2022-12-22T03:58:58;9.90;99.90
13186;DHT22;6658;53.080;7.428;2022-12-22T04:01:24;9.80;99.90
13186;DHT22;6658;53.080;7.428;2022-12-22T04:03:49;10.00;99.90
13186;DHT22;6658;53.080;7.428;2022-12-22T04:06:16;10.00;99.90
13186;DHT22;6658;53.080;7.428;2022-12-22T04:08:42;10.00;99.90
13186;DHT22;6658;53.080;7.428;2022-12-22T04:11:15;10.00;99.90
13186;DHT22;6658;53.080;7.428;2022-12-22T04:14:00;10.00;99.90
13186;DHT22;6658;53.080;7.428;2022-12-22T04:16:26;10.00;99.90
13186;DHT22;6658;53.080;7.428;2022-12-22T04:18:52;10.00;99.90
13186;DHT22;6658;53.080;7.428;2022-12-22T04:21:17;10.00;99.90
13186;DHT22;6658;53.080;7.428;2022-12-22T04:23:43;10.00;99.90
13186;DHT22;6658;53.080;7.428;2022-12-22T04:26:09;10.00;99.90
13186;DHT22;6658;53.080;7.428;2022-12-22T04:28:34;10.00;99.90
13186;DHT22;6658;53.080;7.428;2022-12-22T04:31:00;10.00;99.90
13186;DHT22;6658;53.080;7.428;2022-12-22T04:33:26;10.00;99.90
13186;DHT22;6658;53.080;7.428;2022-12-22T04:35:51;10.10;99.90
13186;DHT22;6658;53.080;7.428;2022-12-22T04:38:17;10.00;99.90
13186;DHT22;6658;53.080;7.428;2022-12-22T04:40:43;10.10;99.90
13186;DHT22;6658;53.080;7.428;2022-12-22T04:43:08;10.00;99.90
13186;DHT22;6658;53.080;7.428;2022-12-22T04:45:34;10.10;99.90
13186;DHT22;6658;53.080;7.428;2022-12-22T04:48:00;10.10;99.90
13186;DHT22;6658;53.080;7.428;2022-12-22T04:50:26;10.00;99.90
13186;DHT22;6658;53.080;7.428;2022-12-22T04:52:51;10.00;99.90
13186;DHT22;6658;53.080;7.428;2022-12-22T04:55:21;10.00;99.90
13186;DHT22;6658;53.080;7.428;2022-12-22T04:57:46;10.00;99.90
13186;DHT22;6658;53.080;7.428;2022-12-22T05:00:12;10.00;99.90
13186;DHT22;6658;53.080;7.428;2022-12-22T05:02:38;10.00;99.90
13186;DHT22;6658;53.080;7.428;2022-12-22T05:05:04;10.00;99.90
13186;DHT22;6658;53.080;7.428;2022-12-22T05:07:30;10.00;99.90
13186;DHT22;6658;53.080;7.428;2022-12-22T05:09:55;10.00;99.90
13186;DHT22;6658;53.080;7.428;2022-12-22T05:12:21;10.00;99.90
13186;DHT22;6658;53.080;7.428;2022-12-22T05:15:06;10.00;99.90
13186;DHT22;6658;53.080;7.428;2022-12-22T05:17:31;10.00;99.90
13186;DHT22;6658;53.080;7.428;2022-12-22T05:19:57;10.00;99.90
13186;DHT22;6658;53.080;7.428;2022-12-22T05:22:23;10.00;99.90
13186;DHT22;6658;53.080;7.428;2022-12-22T05:24:49;10.00;99.90
13186;DHT22;6658;53.080;7.428;2022-12-22T05:27:14;10.00;99.90
13186;DHT22;6658;53.080;7.428;2022-12-22T05:29:40;10.00;99.90
13186;DHT22;6658;53.080;7.428;2022-12-22T05:32:05;10.00;99.90
13186;DHT22;6658;53.080;7.428;2022-12-22T05:34:31;10.00;99.90
13186;DHT22;6658;53.080;7.428;2022-12-22T05:36:57;10.00;99.90
13186;DHT22;6658;53.080;7.428;2022-12-22T05:39:22;10.00;99.90
13186;DHT22;6658;53.080;7.428;2022-12-22T05:41:48;10.00;99.90
13186;DHT22;6658;53.080;7.428;2022-12-22T05:44:14;10.00;99.90
13186;DHT22;6658;53.080;7.428;2022-12-22T05:46:40;10.00;99.90
13186;DHT22;6658;53.080;7.428;2022-12-22T05:49:05;9.90;99.90
13186;DHT22;6658;53.080;7.428;2022-12-22T05:51:31;9.90;99.90
13186;DHT22;6658;53.080;7.428;2022-12-22T05:53:56;9.90;99.90
13186;DHT22;6658;53.080;7.428;2022-12-22T05:56:22;9.90;99.90
13186;DHT22;6658;53.080;7.428;2022-12-22T05:58:48;9.80;99.90
13186;DHT22;6658;53.080;7.428;2022-12-22T06:01:13;9.80;99.90
13186;DHT22;6658;53.080;7.428;2022-12-22T06:03:39;9.80;99.90
13186;DHT22;6658;53.080;7.428;2022-12-22T06:06:05;9.80;99.90
13186;DHT22;6658;53.080;7.428;2022-12-22T06:08:31;9.80;99.90
13186;DHT22;6658;53.080;7.428;2022-12-22T06:10:57;9.80;99.90
13186;DHT22;6658;53.080;7.428;2022-12-22T06:13:24;9.90;99.90
13186;DHT22;6658;53.080;7.428;2022-12-22T06:15:50;9.90;99.90
13186;DHT22;6658;53.080;7.428;2022-12-22T06:18:16;9.90;99.90
13186;DHT22;6658;53.080;7.428;2022-12-22T06:20:41;9.90;99.90
13186;DHT22;6658;53.080;7.428;2022-12-22T06:23:07;9.90;99.90
13186;DHT22;6658;53.080;7.428;2022-12-22T06:25:33;9.90;99.90
13186;DHT22;6658;53.080;7.428;2022-12-22T06:27:59;10.00;99.90
13186;DHT22;6658;53.080;7.428;2022-12-22T06:30:25;9.90;99.90
13186;DHT22;6658;53.080;7.428;2022-12-22T06:32:50;10.00;99.90
13186;DHT22;6658;53.080;7.428;2022-12-22T06:35:16;9.90;99.90
13186;DHT22;6658;53.080;7.428;2022-12-22T06:37:42;10.00;99.90
13186;DHT22;6658;53.080;7.428;2022-12-22T06:40:08;10.00;99.90
13186;DHT22;6658;53.080;7.428;2022-12-22T06:42:34;10.00;99.90
13186;DHT22;6658;53.080;7.428;2022-12-22T06:45:18;10.00;99.90
13186;DHT22;6658;53.080;7.428;2022-12-22T06:47:44;10.00;99.90
13186;DHT22;6658;53.080;7.428;2022-12-22T06:50:10;10.00;99.90
13186;DHT22;6658;53.080;7.428;2022-12-22T06:52:35;10.00;99.90
13186;DHT22;6658;53.080;7.428;2022-12-22T06:55:01;10.00;99.90
13186;DHT22;6658;53.080;7.428;2022-12-22T06:57:27;10.00;99.90
13186;DHT22;6658;53.080;7.428;2022-12-22T06:59:53;10.00;99.90
13186;DHT22;6658;53.080;7.428;2022-12-22T07:02:19;10.00;99.90
13186;DHT22;6658;53.080;7.428;2022-12-22T07:04:45;9.90;99.90
13186;DHT22;6658;53.080;7.428;2022-12-22T07:07:10;9.90;99.90
13186;DHT22;6658;53.080;7.428;2022-12-22T07:09:36;9.90;99.90
13186;DHT22;6658;53.080;7.428;2022-12-22T07:12:02;9.90;99.90
13186;DHT22;6658;53.080;7.428;2022-12-22T07:14:28;9.90;99.90
13186;DHT22;6658;53.080;7.428;2022-12-22T07:16:53;9.90;99.90
13186;DHT22;6658;53.080;7.428;2022-12-22T07:19:19;9.90;99.90
13186;DHT22;6658;53.080;7.428;2022-12-22T07:21:45;9.80;99.90
13186;DHT22;6658;53.080;7.428;2022-12-22T07:24:13;9.90;99.90
13186;DHT22;6658;53.080;7.428;2022-12-22T07:26:38;9.90;99.90
13186;DHT22;6658;53.080;7.428;2022-12-22T07:29:04;9.80;99.90
13186;DHT22;6658;53.080;7.428;2022-12-22T07:31:30;9.80;99.90
13186;DHT22;6658;53.080;7.428;2022-12-22T07:33:55;9.70;99.90
13186;DHT22;6658;53.080;7.428;2022-12-22T07:36:21;9.70;99.90
13186;DHT22;6658;53.080;7.428;2022-12-22T07:38:49;9.60;99.90
13186;DHT22;6658;53.080;7.428;2022-12-22T07:41:17;9.50;99.90
13186;DHT22;6658;53.080;7.428;2022-12-22T07:44:03;9.40;99.90
13186;DHT22;6658;53.080;7.428;2022-12-22T07:46:31;9.20;99.90
13186;DHT22;6658;53.080;7.428;2022-12-22T07:48:57;9.00;99.90
13186;DHT22;6658;53.080;7.428;2022-12-22T07:51:42;9.00;99.90
13186;DHT22;6658;53.080;7.428;2022-12-22T07:54:10;8.90;99.90
13186;DHT22;6658;53.080;7.428;2022-12-22T07:56:37;8.80;99.90
13186;DHT22;6658;53.080;7.428;2022-12-22T07:59:03;8.70;99.90
13186;DHT22;6658;53.080;7.428;2022-12-22T08:01:28;8.60;99.90
13186;DHT22;6658;53.080;7.428;2022-12-22T08:03:55;8.50;99.90
13186;DHT22;6658;53.080;7.428;2022-12-22T08:06:21;8.50;99.90
13186;DHT22;6658;53.080;7.428;2022-12-22T08:08:47;8.40;99.90
13186;DHT22;6658;53.080;7.428;2022-12-22T08:11:13;8.30;99.90
13186;DHT22;6658;53.080;7.428;2022-12-22T08:13:39;8.40;99.90
13186;DHT22;6658;53.080;7.428;2022-12-22T08:16:06;8.30;99.90
13186;DHT22;6658;53.080;7.428;2022-12-22T08:18:33;8.30;99.90
13186;DHT22;6658;53.080;7.428;2022-12-22T08:20:59;8.30;99.90
13186;DHT22;6658;53.080;7.428;2022-12-22T08:23:25;8.30;99.90
13186;DHT22;6658;53.080;7.428;2022-12-22T08:25:57;8.20;99.90
13186;DHT22;6658;53.080;7.428;2022-12-22T08:28:23;8.20;99.90
13186;DHT22;6658;53.080;7.428;2022-12-22T08:30:49;8.10;99.90
13186;DHT22;6658;53.080;7.428;2022-12-22T08:33:15;8.10;99.90
13186;DHT22;6658;53.080;7.428;2022-12-22T08:35:42;8.10;99.90
13186;DHT22;6658;53.080;7.428;2022-12-22T08:38:09;8.20;99.90
13186;DHT22;6658;53.080;7.428;2022-12-22T08:40:36;8.20;99.90
13186;DHT22;6658;53.080;7.428;2022-12-22T08:43:04;8.20;99.90
13186;DHT22;6658;53.080;7.428;2022-12-22T08:45:32;8.30;99.90
13186;DHT22;6658;53.080;7.428;2022-12-22T08:47:58;8.40;99.90
13186;DHT22;6658;53.080;7.428;2022-12-22T08:50:24;8.50;99.90
13186;DHT22;6658;53.080;7.428;2022-12-22T08:52:49;8.70;99.90
13186;DHT22;6658;53.080;7.428;2022-12-22T08:55:15;8.80;99.90
13186;DHT22;6658;53.080;7.428;2022-12-22T08:57:41;9.00;99.90
13186;DHT22;6658;53.080;7.428;2022-12-22T09:00:08;9.10;99.90
13186;DHT22;6658;53.080;7.428;2022-12-22T09:02:35;9.20;99.90
13186;DHT22;6658;53.080;7.428;2022-12-22T09:05:03;9.30;99.90
13186;DHT22;6658;53.080;7.428;2022-12-22T09:07:29;9.30;99.90
13186;DHT22;6658;53.080;7.428;2022-12-22T09:09:54;9.30;99.90
13186;DHT22;6658;53.080;7.428;2022-12-22T09:12:22;9.40;99.90
13186;DHT22;6658;53.080;7.428;2022-12-22T09:14:47;9.40;99.90
13186;DHT22;6658;53.080;7.428;2022-12-22T09:17:13;9.40;99.90
13186;DHT22;6658;53.080;7.428;2022-12-22T09:19:38;9.40;99.90
13186;DHT22;6658;53.080;7.428;2022-12-22T09:22:04;9.30;99.90
13186;DHT22;6658;53.080;7.428;2022-12-22T09:24:30;9.30;99.90
13186;DHT22;6658;53.080;7.428;2022-12-22T09:26:56;9.30;99.90
13186;DHT22;6658;53.080;7.428;2022-12-22T09:29:21;9.30;99.90
13186;DHT22;6658;53.080;7.428;2022-12-22T09:31:47;9.20;99.90
13186;DHT22;6658;53.080;7.428;2022-12-22T09:34:12;9.10;99.90
13186;DHT22;6658;53.080;7.428;2022-12-22T09:36:40;9.10;99.90
13186;DHT22;6658;53.080;7.428;2022-12-22T09:39:07;8.90;99.90
13186;DHT22;6658;53.080;7.428;2022-12-22T09:41:47;8.90;99.90
13186;DHT22;6658;53.080;7.428;2022-12-22T09:44:33;8.80;99.90
13186;DHT22;6658;53.080;7.428;2022-12-22T09:47:03;8.70;99.90
13186;DHT22;6658;53.080;7.428;2022-12-22T09:49:34;8.70;99.90
13186;DHT22;6658;53.080;7.428;2022-12-22T09:52:02;8.70;99.90
13186;DHT22;6658;53.080;7.428;2022-12-22T09:54:29;8.70;99.90
13186;DHT22;6658;53.080;7.428;2022-12-22T09:56:55;8.60;99.90
13186;DHT22;6658;53.080;7.428;2022-12-22T09:59:24;8.60;99.90
13186;DHT22;6658;53.080;7.428;2022-12-22T10:04:44;8.60;99.90
13186;DHT22;6658;53.080;7.428;2022-12-22T10:07:34;8.60;99.90
13186;DHT22;6658;53.080;7.428;2022-12-22T10:10:29;8.50;99.90
13186;DHT22;6658;53.080;7.428;2022-12-22T10:12:55;8.50;99.90
13186;DHT22;6658;53.080;7.428;2022-12-22T10:15:22;8.40;99.90
13186;DHT22;6658;53.080;7.428;2022-12-22T10:17:52;8.40;99.90
13186;DHT22;6658;53.080;7.428;2022-12-22T10:20:25;8.40;99.90
13186;DHT22;6658;53.080;7.428;2022-12-22T10:22:57;8.40;99.90
13186;DHT22;6658;53.080;7.428;2022-12-22T10:25:33;8.40;99.90
13186;DHT22;6658;53.080;7.428;2022-12-22T10:28:07;8.40;99.90
13186;DHT22;6658;53.080;7.428;2022-12-22T10:30:36;8.40;99.90
13186;DHT22;6658;53.080;7.428;2022-12-22T10:33:09;8.50;99.90
13186;DHT22;6658;53.080;7.428;2022-12-22T10:35:53;8.50;99.90
13186;DHT22;6658;53.080;7.428;2022-12-22T10:38:30;8.60;99.90
13186;DHT22;6658;53.080;7.428;2022-12-22T10:40:59;8.70;99.90
13186;DHT22;6658;53.080;7.428;2022-12-22T10:43:32;8.70;99.90
13186;DHT22;6658;53.080;7.428;2022-12-22T10:45:59;8.70;99.90
13186;DHT22;6658;53.080;7.428;2022-12-22T10:48:35;8.70;99.90
13186;DHT22;6658;53.080;7.428;2022-12-22T10:51:04;8.70;99.90
13186;DHT22;6658;53.080;7.428;2022-12-22T10:53:43;8.70;99.90
13186;DHT22;6658;53.080;7.428;2022-12-22T11:01:22;8.80;99.90
13186;DHT22;6658;53.080;7.428;2022-12-22T11:03:48;8.90;99.90
13186;DHT22;6658;53.080;7.428;2022-12-22T11:06:14;9.00;99.90
13186;DHT22;6658;53.080;7.428;2022-12-22T11:08:40;9.20;99.90
13186;DHT22;6658;53.080;7.428;2022-12-22T11:11:09;9.30;99.90
13186;DHT22;6658;53.080;7.428;2022-12-22T11:13:46;9.40;99.90
13186;DHT22;6658;53.080;7.428;2022-12-22T11:21:44;9.30;99.90
13186;DHT22;6658;53.080;7.428;2022-12-22T11:35:41;9.30;99.90
13186;DHT22;6658;53.080;7.428;2022-12-22T11:40:55;9.40;99.90
13186;DHT22;6658;53.080;7.428;2022-12-22T11:46:33;9.40;99.90
13186;DHT22;6658;53.080;7.428;2022-12-22T11:49:04;9.40;99.90
13186;DHT22;6658;53.080;7.428;2022-12-22T11:52:06;9.30;99.90
13186;DHT22;6658;53.080;7.428;2022-12-22T11:55:13;9.30;99.90
13186;DHT22;6658;53.080;7.428;2022-12-22T11:57:51;9.20;99.90
13186;DHT22;6658;53.080;7.428;2022-12-22T12:00:19;9.10;99.90
13186;DHT22;6658;53.080;7.428;2022-12-22T12:16:51;9.30;99.90
13186;DHT22;6658;53.080;7.428;2022-12-22T12:22:04;9.40;99.90
13186;DHT22;6658;53.080;7.428;2022-12-22T12:24:53;9.30;99.90
13186;DHT22;6658;53.080;7.428;2022-12-22T12:27:52;9.40;99.90
13186;DHT22;6658;53.080;7.428;2022-12-22T12:30:21;9.40;99.90
13186;DHT22;6658;53.080;7.428;2022-12-22T12:33:08;9.50;99.90
13186;DHT22;6658;53.080;7.428;2022-12-22T12:42:03;9.50;99.90
13186;DHT22;6658;53.080;7.428;2022-12-22T12:44:12;9.60;99.90
13186;DHT22;6658;53.080;7.428;2022-12-22T12:52:00;9.50;99.90
13186;DHT22;6658;53.080;7.428;2022-12-22T12:57:10;9.50;99.90
13186;DHT22;6658;53.080;7.428;2022-12-22T13:10:30;9.30;99.90
13186;DHT22;6658;53.080;7.428;2022-12-22T13:12:56;9.20;99.90
13186;DHT22;6658;53.080;7.428;2022-12-22T13:15:30;9.20;99.90
13186;DHT22;6658;53.080;7.428;2022-12-22T13:17:56;9.20;99.90
13186;DHT22;6658;53.080;7.428;2022-12-22T13:20:34;9.30;99.90
13186;DHT22;6658;53.080;7.428;2022-12-22T13:23:02;9.20;99.90
13186;DHT22;6658;53.080;7.428;2022-12-22T13:25:50;9.20;99.90
13186;DHT22;6658;53.080;7.428;2022-12-22T13:28:19;9.10;99.90
13186;DHT22;6658;53.080;7.428;2022-12-22T13:30:52;9.10;99.90
13186;DHT22;6658;53.080;7.428;2022-12-22T13:33:24;9.20;99.90
13186;DHT22;6658;53.080;7.428;2022-12-22T13:35:52;9.20;99.90
13186;DHT22;6658;53.080;7.428;2022-12-22T13:38:35;9.20;99.90
13186;DHT22;6658;53.080;7.428;2022-12-22T13:41:16;9.30;99.90
13186;DHT22;6658;53.080;7.428;2022-12-22T13:43:46;9.40;99.90
13186;DHT22;6658;53.080;7.428;2022-12-22T13:46:14;9.40;99.90
13186;DHT22;6658;53.080;7.428;2022-12-22T13:48:44;9.50;99.90
13186;DHT22;6658;53.080;7.428;2022-12-22T13:51:23;9.50;99.90
13186;DHT22;6658;53.080;7.428;2022-12-22T13:54:12;9.50;99.90
13186;DHT22;6658;53.080;7.428;2022-12-22T13:56:47;9.50;99.90
13186;DHT22;6658;53.080;7.428;2022-12-22T13:59:31;9.50;99.90
13186;DHT22;6658;53.080;7.428;2022-12-22T14:02:00;9.60;99.90
13186;DHT22;6658;53.080;7.428;2022-12-22T14:04:27;9.60;99.90
13186;DHT22;6658;53.080;7.428;2022-12-22T14:06:54;9.70;99.90
13186;DHT22;6658;53.080;7.428;2022-12-22T14:09:26;9.70;99.90
13186;DHT22;6658;53.080;7.428;2022-12-22T14:14:39;9.70;99.90
13186;DHT22;6658;53.080;7.428;2022-12-22T14:19:51;9.80;99.90
13186;DHT22;6658;53.080;7.428;2022-12-22T14:22:21;9.80;99.90
13186;DHT22;6658;53.080;7.428;2022-12-22T14:24:49;9.80;99.90
13186;DHT22;6658;53.080;7.428;2022-12-22T14:27:44;9.80;99.90
13186;DHT22;6658;53.080;7.428;2022-12-22T14:30:20;9.80;99.90
13186;DHT22;6658;53.080;7.428;2022-12-22T14:32:51;9.70;99.90
13186;DHT22;6658;53.080;7.428;2022-12-22T14:37:49;9.70;99.90
13186;DHT22;6658;53.080;7.428;2022-12-22T14:40:39;9.70;99.90
13186;DHT22;6658;53.080;7.428;2022-12-22T14:45:50;9.70;99.90
13186;DHT22;6658;53.080;7.428;2022-12-22T14:48:51;9.70;99.90
13186;DHT22;6658;53.080;7.428;2022-12-22T14:51:18;9.70;99.90
13186;DHT22;6658;53.080;7.428;2022-12-22T14:53:49;9.70;99.90
13186;DHT22;6658;53.080;7.428;2022-12-22T14:56:16;9.70;99.90
13186;DHT22;6658;53.080;7.428;2022-12-22T14:58:46;9.70;99.90
13186;DHT22;6658;53.080;7.428;2022-12-22T15:01:26;9.80;99.90
13186;DHT22;6658;53.080;7.428;2022-12-22T15:04:28;9.80;99.90
13186;DHT22;6658;53.080;7.428;2022-12-22T15:07:05;9.70;99.90
13186;DHT22;6658;53.080;7.428;2022-12-22T15:09:31;9.70;99.90
13186;DHT22;6658;53.080;7.428;2022-12-22T15:12:05;9.60;99.90
13186;DHT22;6658;53.080;7.428;2022-12-22T15:14:35;9.60;99.90
13186;DHT22;6658;53.080;7.428;2022-12-22T15:17:02;9.50;99.90
13186;DHT22;6658;53.080;7.428;2022-12-22T15:19:30;9.50;99.90
13186;DHT22;6658;53.080;7.428;2022-12-22T15:21:56;9.40;99.90
13186;DHT22;6658;53.080;7.428;2022-12-22T15:24:22;9.30;99.90
13186;DHT22;6658;53.080;7.428;2022-12-22T15:26:48;9.30;99.90
13186;DHT22;6658;53.080;7.428;2022-12-22T15:29:13;9.30;99.90
13186;DHT22;6658;53.080;7.428;2022-12-22T15:31:40;9.30;99.90
13186;DHT22;6658;53.080;7.428;2022-12-22T15:34:33;9.30;99.90
13186;DHT22;6658;53.080;7.428;2022-12-22T15:36:58;9.30;99.90
13186;DHT22;6658;53.080;7.428;2022-12-22T15:39:24;9.20;99.90
13186;DHT22;6658;53.080;7.428;2022-12-22T15:41:50;9.20;99.90
13186;DHT22;6658;53.080;7.428;2022-12-22T15:44:22;9.20;99.90
13186;DHT22;6658;53.080;7.428;2022-12-22T15:46:57;9.20;99.90
13186;DHT22;6658;53.080;7.428;2022-12-22T15:49:27;9.20;99.90
13186;DHT22;6658;53.080;7.428;2022-12-22T15:51:56;9.20;99.90
13186;DHT22;6658;53.080;7.428;2022-12-22T15:54:24;9.20;99.90
13186;DHT22;6658;53.080;7.428;2022-12-22T15:56:51;9.20;99.90
13186;DHT22;6658;53.080;7.428;2022-12-22T15:59:20;9.20;99.90
13186;DHT22;6658;53.080;7.428;2022-12-22T16:01:47;9.20;99.90
13186;DHT22;6658;53.080;7.428;2022-12-22T16:04:12;9.20;99.90
13186;DHT22;6658;53.080;7.428;2022-12-22T16:06:38;9.20;99.90
13186;DHT22;6658;53.080;7.428;2022-12-22T16:09:08;9.20;99.90
13186;DHT22;6658;53.080;7.428;2022-12-22T16:11:37;9.20;99.90
13186;DHT22;6658;53.080;7.428;2022-12-22T16:14:03;9.30;99.90
13186;DHT22;6658;53.080;7.428;2022-12-22T16:16:29;9.30;99.90
13186;DHT22;6658;53.080;7.428;2022-12-22T16:18:55;9.30;99.90
13186;DHT22;6658;53.080;7.428;2022-12-22T16:21:28;9.30;99.90
13186;DHT22;6658;53.080;7.428;2022-12-22T16:23:54;9.30;99.90
13186;DHT22;6658;53.080;7.428;2022-12-22T16:26:21;9.20;99.90
13186;DHT22;6658;53.080;7.428;2022-12-22T16:28:47;9.20;99.90
13186;DHT22;6658;53.080;7.428;2022-12-22T16:31:23;9.20;99.90
13186;DHT22;6658;53.080;7.428;2022-12-22T16:33:50;9.20;99.90
13186;DHT22;6658;53.080;7.428;2022-12-22T16:36:16;9.10;99.90
13186;DHT22;6658;53.080;7.428;2022-12-22T16:38:46;9.10;99.90
13186;DHT22;6658;53.080;7.428;2022-12-22T16:41:18;9.10;99.90
13186;DHT22;6658;53.080;7.428;2022-12-22T16:43:45;9.00;99.90
13186;DHT22;6658;53.080;7.428;2022-12-22T16:46:15;9.00;99.90
13186;DHT22;6658;53.080;7.428;2022-12-22T16:48:47;9.00;99.90
13186;DHT22;6658;53.080;7.428;2022-12-22T16:51:17;9.00;99.90
13186;DHT22;6658;53.080;7.428;2022-12-22T16:53:44;8.90;99.90
13186;DHT22;6658;53.080;7.428;2022-12-22T16:56:14;9.00;99.90
13186;DHT22;6658;53.080;7.428;2022-12-22T16:58:42;8.90;99.90
13186;DHT22;6658;53.080;7.428;2022-12-22T17:04:10;8.90;99.90
13186;DHT22;6658;53.080;7.428;2022-12-22T17:06:38;8.90;99.90
13186;DHT22;6658;53.080;7.428;2022-12-22T17:09:08;8.90;99.90
13186;DHT22;6658;53.080;7.428;2022-12-22T17:11:36;8.90;99.90
13186;DHT22;6658;53.080;7.428;2022-12-22T17:14:28;8.90;99.90
13186;DHT22;6658;53.080;7.428;2022-12-22T17:16:54;8.80;99.90
13186;DHT22;6658;53.080;7.428;2022-12-22T17:19:20;8.90;99.90
13186;DHT22;6658;53.080;7.428;2022-12-22T17:21:46;8.90;99.90
13186;DHT22;6658;53.080;7.428;2022-12-22T17:24:14;8.90;99.90
13186;DHT22;6658;53.080;7.428;2022-12-22T17:26:41;8.90;99.90
13186;DHT22;6658;53.080;7.428;2022-12-22T17:29:13;8.90;99.90
13186;DHT22;6658;53.080;7.428;2022-12-22T17:31:39;8.90;99.90
13186;DHT22;6658;53.080;7.428;2022-12-22T17:34:15;8.90;99.90
13186;DHT22;6658;53.080;7.428;2022-12-22T17:36:42;8.90;99.90
13186;DHT22;6658;53.080;7.428;2022-12-22T17:39:14;8.90;99.90
13186;DHT22;6658;53.080;7.428;2022-12-22T17:41:41;8.90;99.90
13186;DHT22;6658;53.080;7.428;2022-12-22T17:44:19;8.90;99.90
13186;DHT22;6658;53.080;7.428;2022-12-22T17:46:46;8.80;99.90
13186;DHT22;6658;53.080;7.428;2022-12-22T17:49:12;8.80;99.90
13186;DHT22;6658;53.080;7.428;2022-12-22T17:51:39;8.80;99.90
13186;DHT22;6658;53.080;7.428;2022-12-22T17:54:07;8.80;99.90
13186;DHT22;6658;53.080;7.428;2022-12-22T17:56:35;8.80;99.90
13186;DHT22;6658;53.080;7.428;2022-12-22T17:59:01;8.80;99.90
13186;DHT22;6658;53.080;7.428;2022-12-22T18:01:29;8.80;99.90
13186;DHT22;6658;53.080;7.428;2022-12-22T18:03:56;8.80;99.90
13186;DHT22;6658;53.080;7.428;2022-12-22T18:06:25;8.80;99.90
13186;DHT22;6658;53.080;7.428;2022-12-22T18:08:53;8.80;99.90
13186;DHT22;6658;53.080;7.428;2022-12-22T18:11:19;8.80;99.90
13186;DHT22;6658;53.080;7.428;2022-12-22T18:13:45;8.80;99.90
13186;DHT22;6658;53.080;7.428;2022-12-22T18:16:15;8.80;99.90
13186;DHT22;6658;53.080;7.428;2022-12-22T18:18:42;8.80;99.90